Logo AVAMET
Benvolgut visitant, si us plau, ingressa Recuperar contrasenya
AVAMET paisatges

Peníscola Gran Hotel Peñiscola

Dades diàries. Acumulats / Últims 30 dies disponibles

Data Temperatura (°C) Humitat rel. (%) Pressió rel. (hPa) Vent (km/h) Precipitació
Mínima Mitjana Màxima Amplitud
tèrmica
Mínima Mitjana Màxima Mínima Mitjana Màxima Predom. Mitjana Ràfega
màxima
Total
(mm)
Índex-n
Mínima Mitjana Màxima Mínima Mitjana Màxima n
0 a 1
P0 max
mm 5'
Dades mensuals acumulades fins l'últim dia disponible
11/2020 1,3 10,4 18,0 15,0 15,6 18,9 22,8 21,5 1 81 93 1.014 1.022 1.029   8,0 64,4 16,8
Dades anuals acumulades fins l'últim dia disponible
2020 1,3 14,5 24,8 18,4 11,1 22,5 33,3 32,0 0 74 95 988 1.016 1.033   3,1 72,4 240,2
Últims 30 dies disponibles
25-11-2020 9,4     12,7     16,5 7,1 73 82 88 1.014 1.015 1.018 N 8,0 19,3 0,0
24-11-2020 8,4     11,9     16,1 7,7 76 84 90 1.018 1.021 1.025 NW 8,5 24,1 0,0
23-11-2020 8,6     12,1     16,6 8,0 69 80 89 1.025 1.026 1.027 NW 9,5 29,0 0,0
22-11-2020 7,4     11,4     15,6 8,2 71 80 88 1.025 1.026 1.027 N 9,3 22,5 0,0
21-11-2020 6,2     11,3     16,3 10,1 41 58 80 1.025 1.027 1.028 NW 8,0 17,7 0,0
20-11-2020 11,5     14,9     19,5 8,0 38 47 57 1.024 1.026 1.027 NW 14,3 45,1 0,0
19-11-2020 13,0     17,1     20,6 7,6 52 78 90 1.026 1.027 1.029 N 8,4 46,7 0,0
18-11-2020 12,7     16,1     19,4 6,7 76 86 91 1.024 1.025 1.026 N 4,2 22,5 0,0
17-11-2020 12,0     15,5     18,1 6,1 1 82 90 1.023 1.024 1.025 N 4,3 17,7 0,0
16-11-2020 15,3     18,9     22,8 7,5 49 74 87 1.016 1.019 1.024 N 8,5 41,8 0,0
15-11-2020 13,0     16,8     19,8 6,8 79 86 91 1.015 1.017 1.018 N 5,6 33,8 0,0
14-11-2020 12,8     16,1     18,8 6,0 82 88 92 1.018 1.019 1.020 N 3,9 19,3 0,0
13-11-2020 12,5     15,3     18,7 6,2 1 86 92 1.018 1.020 1.021 N 4,0 14,5 0,0
12-11-2020 11,2     15,1     18,6 7,4 1 83 90 1.020 1.021 1.022 N 4,2 14,5 0,0
11-11-2020 10,7     14,8     18,7 8,0 77 85 90 1.021 1.023 1.025 NW 8,2 25,7 0,0
10-11-2020 13,1     16,3     19,8 6,7 1 75 86 1.021 1.023 1.025 NW 4,7 17,7 0,0
09-11-2020 11,0     15,3     18,8 7,8 70 85 90 1.019 1.020 1.021 NW 3,9 19,3 0,0
08-11-2020 11,8     15,6     20,4 8,6 69 81 90 1.019 1.021 1.022 WNW 6,4 19,3 0,0
07-11-2020 14,5     18,4     20,2 5,7 78 85 93 1.014 1.017 1.021 ENE 11,7 64,4 0,40
06-11-2020 18,0     18,8     19,2 1,2 1 89 92 1.018 1.021 1.022 ENE 13,2 57,9 0,0
05-11-2020 11,4     14,6     18,8 7,4 87 89 93 1.020 1.023 1.025 ENE 14,6 62,8 0,67 1,50
04-11-2020 10,9     12,1     17,2 6,3 59 88 92 1.020 1.021 1.023 NW 12,4 37,0 16,8 0,42 2,90
03-11-2020 1,3     12,4     20,4 19,1 87 90 91 1.021 1.022 1.023 N 6,9 38,6 0,0
02-11-2020 1,3     14,9     20,7 19,4 81 88 91 1.019 1.020 1.021 N 7,4 25,7 0,0
01-11-2020 1,3     17,1     19,9 18,6 79 83 87 1.020 1.021 1.022 N 8,7 37,0 0,0
31-10-2020 1,3     7,6     19,6 18,3 0 41 87 1.020 1.022 1.023 ONO 8,0 32,2 0,0
30-10-2020 11,7     13,2     19,8 8,1 1 57 88 1.022 1.023 1.025 N 8,9 24,1 0,0
29-10-2020 12,6     15,0     20,0 7,4 1 58 80 1.021 1.023 1.025 N 6,8 17,7 0,0
28-10-2020     15,1     20,8 20,8 1 61 75 1.015 1.018 1.021 N 0,8 22,5 0,0
27-10-2020 12,3     15,8     20,9 8,6 36 50 64 1.014 1.015 1.016 N 1,3 27,4 0,0
Últims 13 mesos disponibles
10/2020 1,3 13,9 19,8 17,8 19,6 22,6 30,3 29,0 41 59 86 993 1.013 1.023 N 2,1 45,1 3,6
09/2020 13,6 18,3 20,8 22,6 23,5 27,1 29,7 16,1 37 68 82 1.008 1.015 1.021 SO 1,7 49,9 32,8
08/2020 17,8 22,4 24,8 26,3 26,6 30,4 33,3 15,5 45 68 82 1.003 1.012 1.017 SSO 3,2 38,6 0,2
07/2020 18,8 21,6 24,4 25,7 25,9 29,4 32,6 13,8 54 72 81 1.009 1.014 1.019 SSO 5,0 38,6 1,4
06/2020 14,2 18,1 22,0 21,9 22,5 25,6 29,4 15,2 55 75 85 1.002 1.012 1.019 SSO 4,7 54,7 34,0
05/2020 13,2 16,1 19,7 20,1 17,2 23,7 28,5 15,3 59 76 85 1.002 1.015 1.026 SSO 3,7 53,1 29,4
04/2020 6,3 11,8 15,1 15,2 13,6 18,9 23,4 17,1 65 82 94 1.002 1.014 1.024 OSO 2,9 53,1
03/2020 6,3 10,4 15,4 13,8 12,6 17,3 24,1 17,8 43 72 91 1.002 1.015 1.025 OSO 2,5 69,2
02/2020 5,8 9,1 13,0 13,4 14,2 18,1 24,7 18,9 46 74 91 1.010 1.023 1.031 OSO 0,4 57,9 0,0
01/2020 2,1 6,4 11,8 10,2 11,1 15,2 21,2 19,1 68 80 91 1.017 1.023 1.030 OSO 0,5 72,4 73,2
11/2019 5,8 11,0 17,3 15,0 15,6 19,1 25,6 19,8 43 57 83 995 1.007 1.015 61,0 3,0
10/2019 10,4 15,8 21,1 19,9 16,6 24,1 28,6 18,2 47 68 85 1.005 1.014 1.020 39,0
09/2019 15,3 19,4 22,5 23,4 23,9 27,3 31,4 16,1 54 71 85 1.008 1.016 1.024 0,1 53,0 45,6
Tots els anys disponibles
2019 2,3 13,7 26,2 17,8 9,3 22,0 32,6 30,3 34 66 92 991 1.015 1.032 0,1 71,0
2018 -1,8 14,1 26,7 18,0 7,4 22,0 35,1 36,9 35 68 93 991 1.014 1.033 0,5 74,0 371,8
2017 1,2 13,9 25,2 17,9 7,3 22,0 37,3 36,1 31 67 93 993 1.017 1.034 0,0 68,0 110,4
2016 1,9 14,1 24,9 18,1 10,3 22,0 32,4 30,5 36 66 92 992 1.016 1.035 63,0 274,2
2015 1,2 12,3 27,8 16,2 8,6 20,0 31,6 30,4 33 68 94 993 1.019 1.036 88,0 296,7
Temperatura (°C)
Humitat relativa (%)
Velocitat del vent i ràfega màxima (km/h)
Direcció del vent (°)
Pressió (hPa)
Precipitació (mm)
Nota sobre les dades: s'avisa a l'usuari de la provisionalitat i no oficialitat d'aquestes dades
Logo AVAMET blanc
Web allotjada a Sollutia
Llicència de Creative CommonsLa web d'AVAMET i els seus continguts estan subjectes a una llicència de
Reconeixement - No Comercial - Compartir igual
Avís legal - Política de privacitat - Política de cookies
NOVES ESTACIONS: València - l'Olivereta (Soci), Xixona - Carrasqueta/Bugaia (Soci), l'Alcúdia de Crespins/Canals - la Muntanyeta (Soci), Utiel - est (Soci), Xàbia - Cansalades (Soci), Alginet (Soci), Quatretondeta (Ajuntament Soci) Enguera - Benali (Soci/ADENE), la Vall d'Alba - sud (Ajuntament Soci), El Fondó dels Frares (Estació pròpia d'AVAMET nº34) - - -